Terminal Aerodrome Forecast
Issued by NWS Memphis, TN

Home | Current Version | Previous Version | Text Only | Print | Product List | Glossary On
Versions: 1 2 3 4 5 6 7 8 9 10 11 12 13 14 15 16 17 18
077
FTUS44 KMEG 310526
TAFJBR
TAF
KJBR 310526Z 3106/0106 28005KT P6SM VCSH BKN050 BKN120
     FM311000 VRB02KT P6SM BKN120
     FM311400 12006KT P6SM VCTS BKN050CB BKN120
     FM010000 18003KT P6SM VCTS BKN050CB=

USA.gov is the U.S. government's official web portal to all federal, state and local government web resources and services.